sensor_id;sensor_type;location;lat;lon;timestamp;temperature;humidity
42201;DHT22;27869;51.442;7.540;2022-12-18T00:02:06;-6.00;99.90
42201;DHT22;27869;51.442;7.540;2022-12-18T00:04:33;-6.10;99.90
42201;DHT22;27869;51.442;7.540;2022-12-18T00:07:01;-6.20;99.90
42201;DHT22;27869;51.442;7.540;2022-12-18T00:09:28;-6.30;99.90
42201;DHT22;27869;51.442;7.540;2022-12-18T00:11:55;-6.40;99.90
42201;DHT22;27869;51.442;7.540;2022-12-18T00:14:22;-6.40;99.90
42201;DHT22;27869;51.442;7.540;2022-12-18T00:16:49;-6.40;99.90
42201;DHT22;27869;51.442;7.540;2022-12-18T00:19:16;-6.40;99.90
42201;DHT22;27869;51.442;7.540;2022-12-18T00:21:43;-6.40;99.90
42201;DHT22;27869;51.442;7.540;2022-12-18T00:24:11;-6.40;99.90
42201;DHT22;27869;51.442;7.540;2022-12-18T00:26:39;-6.50;99.90
42201;DHT22;27869;51.442;7.540;2022-12-18T00:29:08;-6.50;99.90
42201;DHT22;27869;51.442;7.540;2022-12-18T00:31:36;-6.60;99.90
42201;DHT22;27869;51.442;7.540;2022-12-18T00:34:03;-6.60;99.90
42201;DHT22;27869;51.442;7.540;2022-12-18T00:36:32;-6.60;99.90
42201;DHT22;27869;51.442;7.540;2022-12-18T00:39:00;-6.70;99.90
42201;DHT22;27869;51.442;7.540;2022-12-18T00:41:29;-6.70;99.90
42201;DHT22;27869;51.442;7.540;2022-12-18T00:44:14;-6.70;99.90
42201;DHT22;27869;51.442;7.540;2022-12-18T00:46:42;-6.70;99.90
42201;DHT22;27869;51.442;7.540;2022-12-18T00:49:09;-6.70;99.90
42201;DHT22;27869;51.442;7.540;2022-12-18T00:51:36;-6.70;99.90
42201;DHT22;27869;51.442;7.540;2022-12-18T00:54:03;-6.70;99.90
42201;DHT22;27869;51.442;7.540;2022-12-18T00:56:32;-6.80;99.90
42201;DHT22;27869;51.442;7.540;2022-12-18T00:58:58;-6.80;99.90
42201;DHT22;27869;51.442;7.540;2022-12-18T01:01:25;-6.90;99.90
42201;DHT22;27869;51.442;7.540;2022-12-18T01:03:52;-6.90;99.90
42201;DHT22;27869;51.442;7.540;2022-12-18T01:06:19;-6.90;99.90
42201;DHT22;27869;51.442;7.540;2022-12-18T01:08:46;-7.00;99.90
42201;DHT22;27869;51.442;7.540;2022-12-18T01:11:14;-7.00;99.90
42201;DHT22;27869;51.442;7.540;2022-12-18T01:13:43;-7.00;99.90
42201;DHT22;27869;51.442;7.540;2022-12-18T01:16:11;-7.00;99.90
42201;DHT22;27869;51.442;7.540;2022-12-18T01:18:38;-7.00;99.90
42201;DHT22;27869;51.442;7.540;2022-12-18T01:21:07;-7.00;99.90
42201;DHT22;27869;51.442;7.540;2022-12-18T01:23:34;-7.00;99.90
42201;DHT22;27869;51.442;7.540;2022-12-18T01:26:04;-7.00;99.90
42201;DHT22;27869;51.442;7.540;2022-12-18T01:28:31;-7.00;99.90
42201;DHT22;27869;51.442;7.540;2022-12-18T01:31:11;-7.10;99.90
42201;DHT22;27869;51.442;7.540;2022-12-18T01:33:38;-7.10;99.90
42201;DHT22;27869;51.442;7.540;2022-12-18T01:36:05;-7.10;99.90
42201;DHT22;27869;51.442;7.540;2022-12-18T01:38:32;-7.10;99.90
42201;DHT22;27869;51.442;7.540;2022-12-18T01:40:59;-7.20;99.90
42201;DHT22;27869;51.442;7.540;2022-12-18T01:43:41;-7.20;99.90
42201;DHT22;27869;51.442;7.540;2022-12-18T01:46:09;-7.20;99.90
42201;DHT22;27869;51.442;7.540;2022-12-18T01:48:37;-7.20;99.90
42201;DHT22;27869;51.442;7.540;2022-12-18T01:51:05;-7.20;99.90
42201;DHT22;27869;51.442;7.540;2022-12-18T01:53:32;-7.20;99.90
42201;DHT22;27869;51.442;7.540;2022-12-18T01:55:59;-7.20;99.90
42201;DHT22;27869;51.442;7.540;2022-12-18T01:58:32;-7.20;99.90
42201;DHT22;27869;51.442;7.540;2022-12-18T02:01:02;-7.20;99.90
42201;DHT22;27869;51.442;7.540;2022-12-18T02:03:30;-7.20;99.90
42201;DHT22;27869;51.442;7.540;2022-12-18T02:06:06;-7.30;99.90
42201;DHT22;27869;51.442;7.540;2022-12-18T02:08:38;-7.40;99.90
42201;DHT22;27869;51.442;7.540;2022-12-18T02:11:11;-7.40;99.90
42201;DHT22;27869;51.442;7.540;2022-12-18T02:13:43;-7.50;99.90
42201;DHT22;27869;51.442;7.540;2022-12-18T02:16:20;-7.50;99.90
42201;DHT22;27869;51.442;7.540;2022-12-18T02:18:56;-7.60;99.90
42201;DHT22;27869;51.442;7.540;2022-12-18T02:21:31;-7.60;99.90
42201;DHT22;27869;51.442;7.540;2022-12-18T02:24:10;-7.70;99.90
42201;DHT22;27869;51.442;7.540;2022-12-18T02:26:43;-7.70;99.90
42201;DHT22;27869;51.442;7.540;2022-12-18T02:29:15;-7.70;99.90
42201;DHT22;27869;51.442;7.540;2022-12-18T02:31:47;-7.70;99.90
42201;DHT22;27869;51.442;7.540;2022-12-18T02:34:16;-7.70;99.90
42201;DHT22;27869;51.442;7.540;2022-12-18T02:36:45;-7.80;99.90
42201;DHT22;27869;51.442;7.540;2022-12-18T02:39:13;-7.80;99.90
42201;DHT22;27869;51.442;7.540;2022-12-18T02:41:43;-7.80;99.90
42201;DHT22;27869;51.442;7.540;2022-12-18T02:44:12;-7.80;99.90
42201;DHT22;27869;51.442;7.540;2022-12-18T02:46:43;-7.80;99.90
42201;DHT22;27869;51.442;7.540;2022-12-18T02:49:21;-7.80;99.90
42201;DHT22;27869;51.442;7.540;2022-12-18T02:51:55;-7.80;99.90
42201;DHT22;27869;51.442;7.540;2022-12-18T02:54:44;-7.80;99.90
42201;DHT22;27869;51.442;7.540;2022-12-18T02:57:20;-7.80;99.90
42201;DHT22;27869;51.442;7.540;2022-12-18T02:59:54;-7.80;99.90
42201;DHT22;27869;51.442;7.540;2022-12-18T03:02:29;-7.80;99.90
42201;DHT22;27869;51.442;7.540;2022-12-18T03:05:03;-7.80;99.90
42201;DHT22;27869;51.442;7.540;2022-12-18T03:07:36;-7.80;99.90
42201;DHT22;27869;51.442;7.540;2022-12-18T03:10:07;-7.80;99.90
42201;DHT22;27869;51.442;7.540;2022-12-18T03:12:39;-7.80;99.90
42201;DHT22;27869;51.442;7.540;2022-12-18T03:15:13;-7.80;99.90
42201;DHT22;27869;51.442;7.540;2022-12-18T03:17:45;-7.80;99.90
42201;DHT22;27869;51.442;7.540;2022-12-18T03:20:17;-7.90;99.90
42201;DHT22;27869;51.442;7.540;2022-12-18T03:22:49;-7.90;99.90
42201;DHT22;27869;51.442;7.540;2022-12-18T03:25:19;-7.90;99.90
42201;DHT22;27869;51.442;7.540;2022-12-18T03:27:51;-7.90;99.90
42201;DHT22;27869;51.442;7.540;2022-12-18T03:30:20;-8.00;99.90
42201;DHT22;27869;51.442;7.540;2022-12-18T03:32:50;-8.00;99.90
42201;DHT22;27869;51.442;7.540;2022-12-18T03:35:23;-8.00;99.90
42201;DHT22;27869;51.442;7.540;2022-12-18T03:37:50;-8.00;99.90
42201;DHT22;27869;51.442;7.540;2022-12-18T03:40:19;-8.00;99.90
42201;DHT22;27869;51.442;7.540;2022-12-18T03:42:49;-8.00;99.90
42201;DHT22;27869;51.442;7.540;2022-12-18T03:45:22;-8.00;99.90
42201;DHT22;27869;51.442;7.540;2022-12-18T03:47:59;-8.10;99.90
42201;DHT22;27869;51.442;7.540;2022-12-18T03:50:35;-8.10;99.90
42201;DHT22;27869;51.442;7.540;2022-12-18T03:53:10;-8.20;99.90
42201;DHT22;27869;51.442;7.540;2022-12-18T03:55:41;-8.20;99.90
42201;DHT22;27869;51.442;7.540;2022-12-18T03:58:12;-8.20;99.90
42201;DHT22;27869;51.442;7.540;2022-12-18T04:00:40;-8.20;99.90
42201;DHT22;27869;51.442;7.540;2022-12-18T04:03:10;-8.20;99.90
42201;DHT22;27869;51.442;7.540;2022-12-18T04:05:37;-8.20;99.90
42201;DHT22;27869;51.442;7.540;2022-12-18T04:08:05;-8.20;99.90
42201;DHT22;27869;51.442;7.540;2022-12-18T04:10:32;-8.20;99.90
42201;DHT22;27869;51.442;7.540;2022-12-18T04:12:59;-8.20;99.90
42201;DHT22;27869;51.442;7.540;2022-12-18T04:15:30;-8.20;99.90
42201;DHT22;27869;51.442;7.540;2022-12-18T04:17:58;-8.20;99.90
42201;DHT22;27869;51.442;7.540;2022-12-18T04:20:25;-8.20;99.90
42201;DHT22;27869;51.442;7.540;2022-12-18T04:22:52;-8.30;99.90
42201;DHT22;27869;51.442;7.540;2022-12-18T04:25:19;-8.30;99.90
42201;DHT22;27869;51.442;7.540;2022-12-18T04:27:46;-8.40;99.90
42201;DHT22;27869;51.442;7.540;2022-12-18T04:30:15;-8.40;99.90
42201;DHT22;27869;51.442;7.540;2022-12-18T04:32:48;-8.50;99.90
42201;DHT22;27869;51.442;7.540;2022-12-18T04:35:15;-8.50;99.90
42201;DHT22;27869;51.442;7.540;2022-12-18T04:37:42;-8.40;99.90
42201;DHT22;27869;51.442;7.540;2022-12-18T04:40:10;-8.50;99.90
42201;DHT22;27869;51.442;7.540;2022-12-18T04:42:38;-8.50;99.90
42201;DHT22;27869;51.442;7.540;2022-12-18T04:45:07;-8.50;99.90
42201;DHT22;27869;51.442;7.540;2022-12-18T04:47:34;-8.50;99.90
42201;DHT22;27869;51.442;7.540;2022-12-18T04:50:02;-8.50;99.90
42201;DHT22;27869;51.442;7.540;2022-12-18T04:52:32;-8.50;99.90
42201;DHT22;27869;51.442;7.540;2022-12-18T04:54:59;-8.50;99.90
42201;DHT22;27869;51.442;7.540;2022-12-18T04:57:26;-8.50;99.90
42201;DHT22;27869;51.442;7.540;2022-12-18T04:59:53;-8.50;99.90
42201;DHT22;27869;51.442;7.540;2022-12-18T05:02:20;-8.50;99.90
42201;DHT22;27869;51.442;7.540;2022-12-18T05:04:49;-8.50;99.90
42201;DHT22;27869;51.442;7.540;2022-12-18T05:07:17;-8.50;99.90
42201;DHT22;27869;51.442;7.540;2022-12-18T05:09:44;-8.50;99.90
42201;DHT22;27869;51.442;7.540;2022-12-18T05:12:11;-8.50;99.90
42201;DHT22;27869;51.442;7.540;2022-12-18T05:14:38;-8.50;99.90
42201;DHT22;27869;51.442;7.540;2022-12-18T05:17:05;-8.50;99.90
42201;DHT22;27869;51.442;7.540;2022-12-18T05:19:32;-8.50;99.90
42201;DHT22;27869;51.442;7.540;2022-12-18T05:21:59;-8.50;99.90
42201;DHT22;27869;51.442;7.540;2022-12-18T05:24:28;-8.50;99.90
42201;DHT22;27869;51.442;7.540;2022-12-18T05:26:55;-8.50;99.90
42201;DHT22;27869;51.442;7.540;2022-12-18T05:29:23;-8.60;99.90
42201;DHT22;27869;51.442;7.540;2022-12-18T05:31:50;-8.60;99.90
42201;DHT22;27869;51.442;7.540;2022-12-18T05:34:17;-8.60;99.90
42201;DHT22;27869;51.442;7.540;2022-12-18T05:36:44;-8.50;99.90
42201;DHT22;27869;51.442;7.540;2022-12-18T05:39:11;-8.50;99.90
42201;DHT22;27869;51.442;7.540;2022-12-18T05:41:39;-8.50;99.90
42201;DHT22;27869;51.442;7.540;2022-12-18T05:44:06;-8.50;99.90
42201;DHT22;27869;51.442;7.540;2022-12-18T05:46:33;-8.60;99.90
42201;DHT22;27869;51.442;7.540;2022-12-18T05:49:00;-8.60;99.90
42201;DHT22;27869;51.442;7.540;2022-12-18T05:51:27;-8.60;99.90
42201;DHT22;27869;51.442;7.540;2022-12-18T05:53:55;-8.60;99.90
42201;DHT22;27869;51.442;7.540;2022-12-18T05:56:22;-8.60;99.90
42201;DHT22;27869;51.442;7.540;2022-12-18T05:58:53;-8.60;99.90
42201;DHT22;27869;51.442;7.540;2022-12-18T06:01:22;-8.50;99.90
42201;DHT22;27869;51.442;7.540;2022-12-18T06:03:49;-8.50;99.90
42201;DHT22;27869;51.442;7.540;2022-12-18T06:06:17;-8.50;99.90
42201;DHT22;27869;51.442;7.540;2022-12-18T06:08:45;-8.60;99.90
42201;DHT22;27869;51.442;7.540;2022-12-18T06:11:13;-8.60;99.90
42201;DHT22;27869;51.442;7.540;2022-12-18T06:13:42;-8.60;99.90
42201;DHT22;27869;51.442;7.540;2022-12-18T06:16:10;-8.60;99.90
42201;DHT22;27869;51.442;7.540;2022-12-18T06:18:38;-8.60;99.90
42201;DHT22;27869;51.442;7.540;2022-12-18T06:21:05;-8.60;99.90
42201;DHT22;27869;51.442;7.540;2022-12-18T06:23:32;-8.50;99.90
42201;DHT22;27869;51.442;7.540;2022-12-18T06:26:03;-8.50;99.90
42201;DHT22;27869;51.442;7.540;2022-12-18T06:28:30;-8.50;99.90
42201;DHT22;27869;51.442;7.540;2022-12-18T06:30:59;-8.40;99.90
42201;DHT22;27869;51.442;7.540;2022-12-18T06:33:28;-8.30;99.90
42201;DHT22;27869;51.442;7.540;2022-12-18T06:35:59;-8.20;99.90
42201;DHT22;27869;51.442;7.540;2022-12-18T06:38:26;-8.10;99.90
42201;DHT22;27869;51.442;7.540;2022-12-18T06:40:53;-8.10;99.90
42201;DHT22;27869;51.442;7.540;2022-12-18T06:43:23;-8.00;99.90
42201;DHT22;27869;51.442;7.540;2022-12-18T06:45:49;-7.90;99.90
42201;DHT22;27869;51.442;7.540;2022-12-18T06:48:18;-7.80;99.90
42201;DHT22;27869;51.442;7.540;2022-12-18T06:50:47;-7.60;99.90
42201;DHT22;27869;51.442;7.540;2022-12-18T06:53:14;-7.40;99.90
42201;DHT22;27869;51.442;7.540;2022-12-18T06:55:41;-7.40;99.90
42201;DHT22;27869;51.442;7.540;2022-12-18T06:58:08;-7.30;99.90
42201;DHT22;27869;51.442;7.540;2022-12-18T07:00:35;-7.10;99.90
42201;DHT22;27869;51.442;7.540;2022-12-18T07:03:02;-7.00;99.90
42201;DHT22;27869;51.442;7.540;2022-12-18T07:05:29;-7.00;99.90
42201;DHT22;27869;51.442;7.540;2022-12-18T07:07:57;-7.00;99.90
42201;DHT22;27869;51.442;7.540;2022-12-18T07:10:24;-7.00;99.90
42201;DHT22;27869;51.442;7.540;2022-12-18T07:12:52;-7.00;99.90
42201;DHT22;27869;51.442;7.540;2022-12-18T07:15:18;-7.00;99.90
42201;DHT22;27869;51.442;7.540;2022-12-18T07:17:45;-6.80;99.90
42201;DHT22;27869;51.442;7.540;2022-12-18T07:20:12;-6.70;99.90
42201;DHT22;27869;51.442;7.540;2022-12-18T07:22:39;-6.50;99.90
42201;DHT22;27869;51.442;7.540;2022-12-18T07:25:08;-6.40;99.90
42201;DHT22;27869;51.442;7.540;2022-12-18T07:27:35;-6.20;99.90
42201;DHT22;27869;51.442;7.540;2022-12-18T07:30:04;-6.20;99.90
42201;DHT22;27869;51.442;7.540;2022-12-18T07:32:31;-6.10;99.90
42201;DHT22;27869;51.442;7.540;2022-12-18T07:34:58;-6.00;99.90
42201;DHT22;27869;51.442;7.540;2022-12-18T07:37:25;-5.90;99.90
42201;DHT22;27869;51.442;7.540;2022-12-18T07:39:51;-5.80;99.90
42201;DHT22;27869;51.442;7.540;2022-12-18T07:42:20;-5.70;99.90
42201;DHT22;27869;51.442;7.540;2022-12-18T07:44:59;-5.60;99.90
42201;DHT22;27869;51.442;7.540;2022-12-18T07:47:27;-5.40;99.90
42201;DHT22;27869;51.442;7.540;2022-12-18T07:49:54;-5.20;99.90
42201;DHT22;27869;51.442;7.540;2022-12-18T07:52:21;-5.10;99.90
42201;DHT22;27869;51.442;7.540;2022-12-18T07:54:48;-5.00;99.90
42201;DHT22;27869;51.442;7.540;2022-12-18T07:57:15;-4.80;99.90
42201;DHT22;27869;51.442;7.540;2022-12-18T07:59:44;-4.70;99.90
42201;DHT22;27869;51.442;7.540;2022-12-18T08:02:11;-4.50;99.90
42201;DHT22;27869;51.442;7.540;2022-12-18T08:04:38;-4.40;99.90
42201;DHT22;27869;51.442;7.540;2022-12-18T08:07:05;-4.30;99.90
42201;DHT22;27869;51.442;7.540;2022-12-18T08:09:32;-4.20;99.90
42201;DHT22;27869;51.442;7.540;2022-12-18T08:11:59;-4.10;99.90
42201;DHT22;27869;51.442;7.540;2022-12-18T08:14:26;-4.00;99.90
42201;DHT22;27869;51.442;7.540;2022-12-18T08:16:54;-3.90;99.90
42201;DHT22;27869;51.442;7.540;2022-12-18T08:19:21;-3.80;99.90
42201;DHT22;27869;51.442;7.540;2022-12-18T08:21:48;-3.70;99.90
42201;DHT22;27869;51.442;7.540;2022-12-18T08:24:15;-3.60;99.90
42201;DHT22;27869;51.442;7.540;2022-12-18T08:26:42;-3.50;99.90
42201;DHT22;27869;51.442;7.540;2022-12-18T08:29:10;-3.40;99.90
42201;DHT22;27869;51.442;7.540;2022-12-18T08:31:36;-3.30;99.90
42201;DHT22;27869;51.442;7.540;2022-12-18T08:34:05;-3.30;99.90
42201;DHT22;27869;51.442;7.540;2022-12-18T08:36:32;-3.20;99.90
42201;DHT22;27869;51.442;7.540;2022-12-18T08:38:58;-3.10;99.90
42201;DHT22;27869;51.442;7.540;2022-12-18T08:41:25;-3.00;99.90
42201;DHT22;27869;51.442;7.540;2022-12-18T08:43:52;-3.00;99.90
42201;DHT22;27869;51.442;7.540;2022-12-18T08:46:38;-2.90;99.90
42201;DHT22;27869;51.442;7.540;2022-12-18T08:49:08;-2.90;99.90
42201;DHT22;27869;51.442;7.540;2022-12-18T08:51:36;-2.80;99.90
42201;DHT22;27869;51.442;7.540;2022-12-18T08:54:04;-2.80;99.90
42201;DHT22;27869;51.442;7.540;2022-12-18T08:56:31;-2.70;99.90
42201;DHT22;27869;51.442;7.540;2022-12-18T08:58:58;-2.60;99.90
42201;DHT22;27869;51.442;7.540;2022-12-18T09:01:25;-2.50;99.90
42201;DHT22;27869;51.442;7.540;2022-12-18T09:03:52;-2.40;99.90
42201;DHT22;27869;51.442;7.540;2022-12-18T09:06:22;-2.30;99.90
42201;DHT22;27869;51.442;7.540;2022-12-18T09:08:49;-2.20;99.90
42201;DHT22;27869;51.442;7.540;2022-12-18T09:11:20;-2.10;99.90
42201;DHT22;27869;51.442;7.540;2022-12-18T09:13:49;-2.00;99.90
42201;DHT22;27869;51.442;7.540;2022-12-18T09:16:16;-1.90;99.90
42201;DHT22;27869;51.442;7.540;2022-12-18T09:18:46;-1.90;99.90
42201;DHT22;27869;51.442;7.540;2022-12-18T09:21:15;-1.80;99.90
42201;DHT22;27869;51.442;7.540;2022-12-18T09:23:44;-1.70;99.90
42201;DHT22;27869;51.442;7.540;2022-12-18T09:26:11;-1.60;99.90
42201;DHT22;27869;51.442;7.540;2022-12-18T09:28:37;-1.50;99.90
42201;DHT22;27869;51.442;7.540;2022-12-18T09:31:07;-1.40;99.90
42201;DHT22;27869;51.442;7.540;2022-12-18T09:33:34;-1.30;99.90
42201;DHT22;27869;51.442;7.540;2022-12-18T09:36:02;-1.20;99.90
42201;DHT22;27869;51.442;7.540;2022-12-18T09:38:29;-1.20;99.90
42201;DHT22;27869;51.442;7.540;2022-12-18T09:41:00;-1.10;99.90
42201;DHT22;27869;51.442;7.540;2022-12-18T09:43:35;-1.00;99.90
42201;DHT22;27869;51.442;7.540;2022-12-18T09:46:07;-1.00;99.90
42201;DHT22;27869;51.442;7.540;2022-12-18T09:48:38;-0.90;99.90
42201;DHT22;27869;51.442;7.540;2022-12-18T09:51:13;-0.80;99.90
42201;DHT22;27869;51.442;7.540;2022-12-18T09:53:46;-0.70;99.90
42201;DHT22;27869;51.442;7.540;2022-12-18T09:56:17;-0.70;99.90
42201;DHT22;27869;51.442;7.540;2022-12-18T09:58:47;-0.60;99.90
42201;DHT22;27869;51.442;7.540;2022-12-18T10:01:20;-0.50;99.90
42201;DHT22;27869;51.442;7.540;2022-12-18T10:03:48;-0.40;99.90
42201;DHT22;27869;51.442;7.540;2022-12-18T10:06:20;-0.40;99.90
42201;DHT22;27869;51.442;7.540;2022-12-18T10:08:52;-0.30;99.90
42201;DHT22;27869;51.442;7.540;2022-12-18T10:11:34;-0.20;99.90
42201;DHT22;27869;51.442;7.540;2022-12-18T10:14:10;-0.20;99.90
42201;DHT22;27869;51.442;7.540;2022-12-18T10:16:47;-0.10;99.90
42201;DHT22;27869;51.442;7.540;2022-12-18T10:19:31;0.00;99.90
42201;DHT22;27869;51.442;7.540;2022-12-18T10:22:01;0.10;99.90
42201;DHT22;27869;51.442;7.540;2022-12-18T10:24:33;0.10;99.90
42201;DHT22;27869;51.442;7.540;2022-12-18T10:27:12;0.20;99.90
42201;DHT22;27869;51.442;7.540;2022-12-18T10:29:41;0.20;99.90
42201;DHT22;27869;51.442;7.540;2022-12-18T10:32:14;0.30;99.90
42201;DHT22;27869;51.442;7.540;2022-12-18T10:34:45;0.30;99.90
42201;DHT22;27869;51.442;7.540;2022-12-18T10:37:16;0.40;99.90
42201;DHT22;27869;51.442;7.540;2022-12-18T10:39:44;0.40;99.90
42201;DHT22;27869;51.442;7.540;2022-12-18T10:42:19;0.50;99.90
42201;DHT22;27869;51.442;7.540;2022-12-18T10:44:46;0.60;99.90
42201;DHT22;27869;51.442;7.540;2022-12-18T10:47:27;0.60;99.90
42201;DHT22;27869;51.442;7.540;2022-12-18T10:49:54;0.70;99.90
42201;DHT22;27869;51.442;7.540;2022-12-18T10:52:25;0.80;99.90
42201;DHT22;27869;51.442;7.540;2022-12-18T10:54:54;0.80;99.90
42201;DHT22;27869;51.442;7.540;2022-12-18T10:57:36;0.90;99.90
42201;DHT22;27869;51.442;7.540;2022-12-18T11:00:22;0.90;99.90
42201;DHT22;27869;51.442;7.540;2022-12-18T11:02:50;1.10;99.90
42201;DHT22;27869;51.442;7.540;2022-12-18T11:05:26;1.10;99.90
42201;DHT22;27869;51.442;7.540;2022-12-18T11:07:54;1.20;99.90
42201;DHT22;27869;51.442;7.540;2022-12-18T11:10:23;1.20;99.90
42201;DHT22;27869;51.442;7.540;2022-12-18T11:12:53;1.30;99.90
42201;DHT22;27869;51.442;7.540;2022-12-18T11:15:29;1.30;99.90
42201;DHT22;27869;51.442;7.540;2022-12-18T11:17:56;1.40;99.90
42201;DHT22;27869;51.442;7.540;2022-12-18T11:20:31;1.50;99.90
42201;DHT22;27869;51.442;7.540;2022-12-18T11:23:00;1.50;99.90
42201;DHT22;27869;51.442;7.540;2022-12-18T11:25:29;1.60;99.90
42201;DHT22;27869;51.442;7.540;2022-12-18T11:27:59;1.60;99.90
42201;DHT22;27869;51.442;7.540;2022-12-18T11:30:28;1.60;99.90
42201;DHT22;27869;51.442;7.540;2022-12-18T11:33:01;1.70;99.90
42201;DHT22;27869;51.442;7.540;2022-12-18T11:35:37;1.80;99.90
42201;DHT22;27869;51.442;7.540;2022-12-18T11:38:15;1.80;99.90
42201;DHT22;27869;51.442;7.540;2022-12-18T11:40:50;1.90;99.90
42201;DHT22;27869;51.442;7.540;2022-12-18T11:43:24;1.90;99.90
42201;DHT22;27869;51.442;7.540;2022-12-18T11:45:54;1.90;99.90
42201;DHT22;27869;51.442;7.540;2022-12-18T11:48:26;1.90;99.90
42201;DHT22;27869;51.442;7.540;2022-12-18T11:50:55;2.00;99.90
42201;DHT22;27869;51.442;7.540;2022-12-18T11:53:24;2.00;99.90
42201;DHT22;27869;51.442;7.540;2022-12-18T11:56:00;2.00;99.90
42201;DHT22;27869;51.442;7.540;2022-12-18T11:58:46;2.10;99.90
42201;DHT22;27869;51.442;7.540;2022-12-18T12:01:22;2.10;99.90
42201;DHT22;27869;51.442;7.540;2022-12-18T12:04:20;2.20;99.90
42201;DHT22;27869;51.442;7.540;2022-12-18T12:06:56;2.10;99.90
42201;DHT22;27869;51.442;7.540;2022-12-18T12:09:32;2.20;99.90
42201;DHT22;27869;51.442;7.540;2022-12-18T12:12:15;2.20;99.90
42201;DHT22;27869;51.442;7.540;2022-12-18T12:14:57;2.20;99.90
42201;DHT22;27869;51.442;7.540;2022-12-18T12:17:36;2.30;99.90
42201;DHT22;27869;51.442;7.540;2022-12-18T12:20:10;2.30;99.90
42201;DHT22;27869;51.442;7.540;2022-12-18T12:22:44;2.30;99.90
42201;DHT22;27869;51.442;7.540;2022-12-18T12:25:29;2.30;99.90
42201;DHT22;27869;51.442;7.540;2022-12-18T12:28:10;2.40;99.90
42201;DHT22;27869;51.442;7.540;2022-12-18T12:30:49;2.40;99.90
42201;DHT22;27869;51.442;7.540;2022-12-18T12:33:29;2.40;99.90
42201;DHT22;27869;51.442;7.540;2022-12-18T12:36:05;2.50;99.90
42201;DHT22;27869;51.442;7.540;2022-12-18T12:38:35;2.50;99.90
42201;DHT22;27869;51.442;7.540;2022-12-18T12:41:05;2.50;99.90
42201;DHT22;27869;51.442;7.540;2022-12-18T12:43:56;2.50;99.90
42201;DHT22;27869;51.442;7.540;2022-12-18T12:46:25;2.60;99.90
42201;DHT22;27869;51.442;7.540;2022-12-18T12:48:55;2.60;99.90
42201;DHT22;27869;51.442;7.540;2022-12-18T12:51:25;2.60;99.90
42201;DHT22;27869;51.442;7.540;2022-12-18T12:53:53;2.60;99.90
42201;DHT22;27869;51.442;7.540;2022-12-18T12:56:22;2.60;99.90
42201;DHT22;27869;51.442;7.540;2022-12-18T12:58:55;2.70;99.90
42201;DHT22;27869;51.442;7.540;2022-12-18T13:01:38;2.70;99.90
42201;DHT22;27869;51.442;7.540;2022-12-18T13:04:15;2.70;99.90
42201;DHT22;27869;51.442;7.540;2022-12-18T13:06:49;2.70;99.90
42201;DHT22;27869;51.442;7.540;2022-12-18T13:09:21;2.70;99.90
42201;DHT22;27869;51.442;7.540;2022-12-18T13:11:48;2.70;99.90
42201;DHT22;27869;51.442;7.540;2022-12-18T13:14:35;2.70;99.90
42201;DHT22;27869;51.442;7.540;2022-12-18T13:17:28;2.70;99.90
42201;DHT22;27869;51.442;7.540;2022-12-18T13:20:09;2.70;99.90
42201;DHT22;27869;51.442;7.540;2022-12-18T13:22:38;2.70;99.90
42201;DHT22;27869;51.442;7.540;2022-12-18T13:25:27;2.80;99.90
42201;DHT22;27869;51.442;7.540;2022-12-18T13:28:03;2.80;99.90
42201;DHT22;27869;51.442;7.540;2022-12-18T13:33:49;2.80;99.90
42201;DHT22;27869;51.442;7.540;2022-12-18T13:36:29;2.80;99.90
42201;DHT22;27869;51.442;7.540;2022-12-18T13:39:23;2.80;99.90
42201;DHT22;27869;51.442;7.540;2022-12-18T13:41:52;2.70;99.90
42201;DHT22;27869;51.442;7.540;2022-12-18T13:44:29;2.80;99.90
42201;DHT22;27869;51.442;7.540;2022-12-18T13:46:58;2.70;99.90
42201;DHT22;27869;51.442;7.540;2022-12-18T13:49:35;2.70;99.90
42201;DHT22;27869;51.442;7.540;2022-12-18T13:52:15;2.70;99.90
42201;DHT22;27869;51.442;7.540;2022-12-18T13:54:43;2.70;99.90
42201;DHT22;27869;51.442;7.540;2022-12-18T13:57:26;2.70;99.90
42201;DHT22;27869;51.442;7.540;2022-12-18T13:59:54;2.70;99.90
42201;DHT22;27869;51.442;7.540;2022-12-18T14:02:22;2.70;99.90
42201;DHT22;27869;51.442;7.540;2022-12-18T14:04:58;2.70;99.90
42201;DHT22;27869;51.442;7.540;2022-12-18T14:07:26;2.70;99.90
42201;DHT22;27869;51.442;7.540;2022-12-18T14:09:56;2.60;99.90
42201;DHT22;27869;51.442;7.540;2022-12-18T14:12:27;2.60;99.90
42201;DHT22;27869;51.442;7.540;2022-12-18T14:15:23;2.60;99.90
42201;DHT22;27869;51.442;7.540;2022-12-18T14:17:52;2.60;99.90
42201;DHT22;27869;51.442;7.540;2022-12-18T14:20:21;2.60;99.90
42201;DHT22;27869;51.442;7.540;2022-12-18T14:22:49;2.60;99.90
42201;DHT22;27869;51.442;7.540;2022-12-18T14:25:19;2.50;99.90
42201;DHT22;27869;51.442;7.540;2022-12-18T14:27:49;2.50;99.90
42201;DHT22;27869;51.442;7.540;2022-12-18T14:30:27;2.50;99.90
42201;DHT22;27869;51.442;7.540;2022-12-18T14:33:05;2.50;99.90
42201;DHT22;27869;51.442;7.540;2022-12-18T14:35:35;2.40;99.90
42201;DHT22;27869;51.442;7.540;2022-12-18T14:38:25;2.40;99.90
42201;DHT22;27869;51.442;7.540;2022-12-18T14:40:57;2.40;99.90
42201;DHT22;27869;51.442;7.540;2022-12-18T14:43:24;2.40;99.90
42201;DHT22;27869;51.442;7.540;2022-12-18T14:45:51;2.30;99.90
42201;DHT22;27869;51.442;7.540;2022-12-18T14:48:20;2.30;99.90
42201;DHT22;27869;51.442;7.540;2022-12-18T14:50:57;2.30;99.90
42201;DHT22;27869;51.442;7.540;2022-12-18T14:53:36;2.30;99.90
42201;DHT22;27869;51.442;7.540;2022-12-18T14:56:14;2.30;99.90
42201;DHT22;27869;51.442;7.540;2022-12-18T14:58:48;2.20;99.90
42201;DHT22;27869;51.442;7.540;2022-12-18T15:01:20;2.20;99.90
42201;DHT22;27869;51.442;7.540;2022-12-18T15:03:48;2.20;99.90
42201;DHT22;27869;51.442;7.540;2022-12-18T15:06:21;2.20;99.90
42201;DHT22;27869;51.442;7.540;2022-12-18T15:08:51;2.20;99.90
42201;DHT22;27869;51.442;7.540;2022-12-18T15:11:27;2.20;99.90
42201;DHT22;27869;51.442;7.540;2022-12-18T15:13:54;2.10;99.90
42201;DHT22;27869;51.442;7.540;2022-12-18T15:16:21;2.20;99.90
42201;DHT22;27869;51.442;7.540;2022-12-18T15:18:48;2.10;99.90
42201;DHT22;27869;51.442;7.540;2022-12-18T15:21:18;2.10;99.90
42201;DHT22;27869;51.442;7.540;2022-12-18T15:23:48;2.10;99.90
42201;DHT22;27869;51.442;7.540;2022-12-18T15:26:16;2.10;99.90
42201;DHT22;27869;51.442;7.540;2022-12-18T15:28:44;2.10;99.90
42201;DHT22;27869;51.442;7.540;2022-12-18T15:31:28;2.10;99.90
42201;DHT22;27869;51.442;7.540;2022-12-18T15:34:14;2.00;99.90
42201;DHT22;27869;51.442;7.540;2022-12-18T15:36:47;2.00;99.90
42201;DHT22;27869;51.442;7.540;2022-12-18T15:39:14;2.00;99.90
42201;DHT22;27869;51.442;7.540;2022-12-18T15:41:41;2.00;99.90
42201;DHT22;27869;51.442;7.540;2022-12-18T15:44:29;2.00;99.90
42201;DHT22;27869;51.442;7.540;2022-12-18T15:46:55;2.00;99.90
42201;DHT22;27869;51.442;7.540;2022-12-18T15:49:22;1.90;99.90
42201;DHT22;27869;51.442;7.540;2022-12-18T15:51:52;1.90;99.90
42201;DHT22;27869;51.442;7.540;2022-12-18T15:54:20;1.90;99.90
42201;DHT22;27869;51.442;7.540;2022-12-18T15:57:09;1.90;99.90
42201;DHT22;27869;51.442;7.540;2022-12-18T15:59:51;1.90;99.90
42201;DHT22;27869;51.442;7.540;2022-12-18T16:02:20;1.90;99.90